SWA402 MBPV-KMCO
Flight info
| Callsign | SWA402 |
|---|---|
| Flight time | N/A |
| Altitude | 38000 |
| Route | BTLER A555 RAJAY DCT OCTAL MUNGI1 |
| Aircraft | B738/M-SADE2E3GIJ4RWZ/LB1D1 |
Departure
| Time | 2026-04-29 21:24 |
|---|---|
| Airport | Providenciales International Airport (MBPV) |
Arrival
| Time | N/A |
|---|---|
| Airport | Orlando International Airport (KMCO) |
| Time | Latitude | Longitude | Altitude | Speed | Heading |
|---|---|---|---|---|---|
| 2026-04-29 20:54 | 21.77580 | -72.27234 | 29 ft | 0 kts | 32° |
| 2026-04-29 21:16 | 21.77576 | -72.27236 | 29 ft | 4 kts | 32° |
| 2026-04-29 21:16 | 21.77553 | -72.27251 | 29 ft | 4 kts | 25° |
| 2026-04-29 21:16 | 21.77530 | -72.27256 | 29 ft | 4 kts | 333° |
| 2026-04-29 21:16 | 21.77516 | -72.27238 | 29 ft | 3 kts | 276° |
| 2026-04-29 21:17 | 21.77515 | -72.27234 | 29 ft | 0 kts | 274° |
| 2026-04-29 21:19 | 21.77516 | -72.27241 | 29 ft | 4 kts | 274° |
| 2026-04-29 21:20 | 21.77519 | -72.27316 | 30 ft | 16 kts | 272° |
| 2026-04-29 21:20 | 21.77524 | -72.27410 | 30 ft | 9 kts | 273° |
| 2026-04-29 21:20 | 21.77500 | -72.27462 | 30 ft | 9 kts | 191° |
| 2026-04-29 21:20 | 21.77440 | -72.27463 | 31 ft | 9 kts | 182° |
| 2026-04-29 21:21 | 21.77407 | -72.27510 | 30 ft | 9 kts | 262° |
| 2026-04-29 21:21 | 21.77407 | -72.27574 | 32 ft | 10 kts | 272° |
| 2026-04-29 21:21 | 21.77412 | -72.27694 | 32 ft | 19 kts | 274° |
| 2026-04-29 21:21 | 21.77422 | -72.27831 | 33 ft | 18 kts | 275° |
| 2026-04-29 21:22 | 21.77433 | -72.27963 | 34 ft | 17 kts | 275° |
| 2026-04-29 21:22 | 21.77433 | -72.28091 | 34 ft | 17 kts | 270° |
| 2026-04-29 21:22 | 21.77476 | -72.28201 | 35 ft | 16 kts | 269° |
| 2026-04-29 21:22 | 21.77463 | -72.28238 | 34 ft | 1 kts | 187° |
| 2026-04-29 21:23 | 21.77455 | -72.28237 | 35 ft | 1 kts | 179° |
| 2026-04-29 21:23 | 21.77442 | -72.28229 | 35 ft | 4 kts | 134° |
| 2026-04-29 21:23 | 21.77436 | -72.28188 | 35 ft | 2 kts | 91° |
| 2026-04-29 21:23 | 21.77436 | -72.28155 | 35 ft | 31 kts | 90° |
| 2026-04-29 21:24 | 21.77415 | -72.27608 | 32 ft | 108 kts | 91° |
| 2026-04-29 21:24 | 21.77383 | -72.26601 | 101 ft | 151 kts | 84° |
| 2026-04-29 21:24 | 21.77489 | -72.25522 | 772 ft | 143 kts | 78° |
| 2026-04-29 21:24 | 21.77509 | -72.24400 | 1277 ft | 161 kts | 101° |
| 2026-04-29 21:25 | 21.77228 | -72.23181 | 1808 ft | 173 kts | 100° |
| 2026-04-29 21:25 | 21.76956 | -72.21878 | 2335 ft | 190 kts | 99° |
| 2026-04-29 21:25 | 21.76662 | -72.20392 | 2513 ft | 216 kts | 98° |
| 2026-04-29 21:25 | 21.76342 | -72.18735 | 2846 ft | 236 kts | 98° |
| 2026-04-29 21:26 | 21.75971 | -72.16871 | 2760 ft | 275 kts | 101° |
| 2026-04-29 21:26 | 21.75522 | -72.14719 | 2844 ft | 303 kts | 101° |
| 2026-04-29 21:26 | 21.75105 | -72.12559 | 3875 ft | 293 kts | 98° |
| 2026-04-29 21:26 | 21.75098 | -72.10402 | 4673 ft | 296 kts | 79° |
| 2026-04-29 21:27 | 21.75906 | -72.08239 | 4526 ft | 330 kts | 55° |
| 2026-04-29 21:27 | 21.77590 | -72.06433 | 4466 ft | 355 kts | 33° |
| 2026-04-29 21:27 | 21.79880 | -72.05356 | 4412 ft | 358 kts | 13° |
| 2026-04-29 21:27 | 21.82305 | -72.05240 | 4357 ft | 342 kts | 352° |
| 2026-04-29 21:28 | 21.84477 | -72.06069 | 4274 ft | 326 kts | 329° |
| 2026-04-29 21:28 | 21.86071 | -72.07695 | 4395 ft | 308 kts | 305° |
| 2026-04-29 21:28 | 21.87129 | -72.09631 | 4663 ft | 291 kts | 300° |
| 2026-04-29 21:28 | 21.88060 | -72.11490 | 5138 ft | 280 kts | 298° |
| 2026-04-29 21:29 | 21.88966 | -72.13311 | 6118 ft | 273 kts | 298° |
| 2026-04-29 21:29 | 21.89869 | -72.15125 | 6865 ft | 277 kts | 298° |
| 2026-04-29 21:29 | 21.90772 | -72.16983 | 7565 ft | 281 kts | 295° |
| 2026-04-29 21:29 | 21.91595 | -72.18852 | 8576 ft | 275 kts | 294° |
| 2026-04-29 21:30 | 21.92422 | -72.20745 | 9298 ft | 282 kts | 294° |
| 2026-04-29 21:30 | 21.93261 | -72.22672 | 10103 ft | 285 kts | 294° |
| 2026-04-29 21:30 | 21.94120 | -72.24648 | 10573 ft | 302 kts | 294° |
| 2026-04-29 21:30 | 21.95043 | -72.26785 | 10745 ft | 326 kts | 294° |
| 2026-04-29 21:31 | 21.96019 | -72.29052 | 10913 ft | 348 kts | 293° |
| 2026-04-29 21:31 | 21.97058 | -72.31479 | 11250 ft | 362 kts | 293° |
| 2026-04-29 21:31 | 21.98118 | -72.33961 | 11837 ft | 367 kts | 293° |
| 2026-04-29 21:31 | 21.99188 | -72.36468 | 12515 ft | 370 kts | 293° |
| 2026-04-29 21:32 | 22.00269 | -72.39003 | 13190 ft | 373 kts | 293° |
| 2026-04-29 21:32 | 22.01274 | -72.41595 | 13832 ft | 377 kts | 289° |
| 2026-04-29 21:32 | 22.02197 | -72.44267 | 14416 ft | 382 kts | 290° |
| 2026-04-29 21:32 | 22.03254 | -72.46912 | 15039 ft | 386 kts | 295° |
| 2026-04-29 21:33 | 22.04752 | -72.49328 | 15667 ft | 392 kts | 310° |
| 2026-04-29 21:33 | 22.06720 | -72.51380 | 16347 ft | 396 kts | 316° |
| 2026-04-29 21:33 | 22.08805 | -72.53277 | 16959 ft | 400 kts | 318° |
| 2026-04-29 21:33 | 22.10974 | -72.55182 | 17515 ft | 404 kts | 318° |
| 2026-04-29 21:34 | 22.13154 | -72.57120 | 18115 ft | 407 kts | 317° |
| 2026-04-29 21:34 | 22.15318 | -72.59117 | 18652 ft | 410 kts | 316° |
| 2026-04-29 21:34 | 22.17488 | -72.61146 | 19129 ft | 414 kts | 316° |
| 2026-04-29 21:34 | 22.19701 | -72.63164 | 19592 ft | 418 kts | 317° |
| 2026-04-29 21:35 | 22.21946 | -72.65180 | 20088 ft | 421 kts | 316° |
| 2026-04-29 21:35 | 22.24026 | -72.67404 | 20575 ft | 420 kts | 305° |
| 2026-04-29 21:35 | 22.25612 | -72.70038 | 21079 ft | 419 kts | 296° |
| 2026-04-29 21:35 | 22.26973 | -72.72819 | 21559 ft | 420 kts | 294° |
| 2026-04-29 21:36 | 22.28311 | -72.75646 | 22034 ft | 424 kts | 295° |
| 2026-04-29 21:36 | 22.29711 | -72.78414 | 22473 ft | 427 kts | 297° |
| 2026-04-29 21:36 | 22.31264 | -72.81180 | 22927 ft | 431 kts | 299° |
| 2026-04-29 21:36 | 22.32856 | -72.83941 | 23376 ft | 433 kts | 298° |
| 2026-04-29 21:37 | 22.34423 | -72.86724 | 23764 ft | 435 kts | 298° |
| 2026-04-29 21:37 | 22.35960 | -72.89545 | 24145 ft | 436 kts | 297° |
| 2026-04-29 21:37 | 22.37475 | -72.92390 | 24547 ft | 437 kts | 296° |
| 2026-04-29 21:37 | 22.38984 | -72.95248 | 24950 ft | 438 kts | 296° |
| 2026-04-29 21:38 | 22.40498 | -72.98114 | 25301 ft | 440 kts | 296° |
| 2026-04-29 21:38 | 22.42019 | -73.00991 | 25652 ft | 441 kts | 296° |
| 2026-04-29 21:38 | 22.43545 | -73.03878 | 26011 ft | 442 kts | 296° |
| 2026-04-29 21:38 | 22.45071 | -73.06767 | 26364 ft | 443 kts | 296° |
| 2026-04-29 21:39 | 22.46604 | -73.09667 | 26714 ft | 444 kts | 296° |
| 2026-04-29 21:39 | 22.48137 | -73.12572 | 27057 ft | 445 kts | 296° |
| 2026-04-29 21:39 | 22.49653 | -73.15446 | 27374 ft | 447 kts | 296° |
| 2026-04-29 21:39 | 22.51193 | -73.18369 | 27688 ft | 448 kts | 295° |
| 2026-04-29 21:40 | 22.52736 | -73.21299 | 27997 ft | 449 kts | 295° |
| 2026-04-29 21:40 | 22.54285 | -73.24243 | 28280 ft | 451 kts | 296° |
| 2026-04-29 21:40 | 22.55841 | -73.27201 | 28526 ft | 453 kts | 296° |
| 2026-04-29 21:40 | 22.57400 | -73.30168 | 28941 ft | 452 kts | 296° |
| 2026-04-29 21:41 | 22.58950 | -73.33116 | 29458 ft | 448 kts | 296° |
| 2026-04-29 21:41 | 22.60484 | -73.36033 | 30011 ft | 444 kts | 296° |
| 2026-04-29 21:41 | 22.62009 | -73.38935 | 30433 ft | 442 kts | 296° |
| 2026-04-29 21:41 | 22.63528 | -73.41829 | 30775 ft | 442 kts | 295° |
| 2026-04-29 21:42 | 22.65044 | -73.44721 | 31102 ft | 441 kts | 295° |
| 2026-04-29 21:42 | 22.66538 | -73.47573 | 31463 ft | 440 kts | 295° |
| 2026-04-29 21:42 | 22.68047 | -73.50454 | 31858 ft | 438 kts | 295° |
| 2026-04-29 21:42 | 22.69548 | -73.53322 | 32262 ft | 437 kts | 295° |
| 2026-04-29 21:43 | 22.71047 | -73.56187 | 32629 ft | 436 kts | 295° |
| 2026-04-29 21:43 | 22.72543 | -73.59049 | 32996 ft | 435 kts | 295° |
| 2026-04-29 21:43 | 22.74030 | -73.61895 | 33391 ft | 434 kts | 295° |
| 2026-04-29 21:43 | 22.75516 | -73.64740 | 33772 ft | 432 kts | 295° |
| 2026-04-29 21:44 | 22.76996 | -73.67577 | 34069 ft | 433 kts | 295° |
| 2026-04-29 21:44 | 22.78480 | -73.70424 | 34287 ft | 434 kts | 295° |
| 2026-04-29 21:44 | 22.79945 | -73.73236 | 34593 ft | 433 kts | 295° |
| 2026-04-29 21:44 | 22.81422 | -73.76068 | 34940 ft | 431 kts | 295° |
| 2026-04-29 21:45 | 22.82894 | -73.78893 | 35257 ft | 430 kts | 295° |
| 2026-04-29 21:45 | 22.84361 | -73.81711 | 35521 ft | 430 kts | 295° |
| 2026-04-29 21:45 | 22.85831 | -73.84538 | 35791 ft | 429 kts | 295° |
| 2026-04-29 21:45 | 22.87297 | -73.87356 | 36090 ft | 428 kts | 295° |
| 2026-04-29 21:46 | 22.88758 | -73.90168 | 36390 ft | 427 kts | 295° |
| 2026-04-29 21:46 | 22.90219 | -73.92980 | 36658 ft | 427 kts | 295° |
| 2026-04-29 21:46 | 22.91673 | -73.95782 | 36923 ft | 427 kts | 295° |
| 2026-04-29 21:46 | 22.93129 | -73.98590 | 37221 ft | 426 kts | 296° |
| 2026-04-29 21:47 | 22.94584 | -74.01399 | 37411 ft | 428 kts | 296° |
| 2026-04-29 21:47 | 22.96046 | -74.04224 | 37559 ft | 430 kts | 296° |
| 2026-04-29 21:47 | 22.97509 | -74.07050 | 37851 ft | 428 kts | 296° |
| 2026-04-29 21:47 | 22.98950 | -74.09831 | 38211 ft | 426 kts | 296° |
| 2026-04-29 21:48 | 23.00401 | -74.12631 | 38511 ft | 424 kts | 296° |
| 2026-04-29 21:48 | 23.01844 | -74.15422 | 38711 ft | 425 kts | 296° |
| 2026-04-29 21:48 | 23.03289 | -74.18218 | 38890 ft | 425 kts | 296° |
| 2026-04-29 21:48 | 23.04733 | -74.21015 | 39099 ft | 424 kts | 296° |
| 2026-04-29 21:49 | 23.06174 | -74.23806 | 39322 ft | 423 kts | 296° |
| 2026-04-29 21:49 | 23.07612 | -74.26594 | 39523 ft | 422 kts | 296° |
| 2026-04-29 21:49 | 23.09046 | -74.29375 | 39707 ft | 421 kts | 296° |
| 2026-04-29 21:49 | 23.10477 | -74.32153 | 39910 ft | 421 kts | 296° |
| 2026-04-29 21:50 | 23.11906 | -74.34929 | 39998 ft | 422 kts | 296° |
| 2026-04-29 21:50 | 23.14764 | -74.40489 | 40008 ft | 425 kts | 296° |
| 2026-04-29 21:51 | 23.17624 | -74.46102 | 40008 ft | 423 kts | 296° |
| 2026-04-29 21:51 | 23.21881 | -74.54495 | 40023 ft | 421 kts | 296° |
| 2026-04-29 21:52 | 23.24689 | -74.60034 | 40008 ft | 420 kts | 296° |
| 2026-04-29 21:52 | 23.27509 | -74.65602 | 40009 ft | 420 kts | 296° |
| 2026-04-29 21:53 | 23.30325 | -74.71166 | 40008 ft | 419 kts | 296° |
| 2026-04-29 21:53 | 23.33137 | -74.76730 | 40014 ft | 420 kts | 296° |
| 2026-04-29 21:54 | 23.35950 | -74.82302 | 40008 ft | 420 kts | 296° |
| 2026-04-29 21:54 | 23.38767 | -74.87887 | 40011 ft | 421 kts | 296° |
| 2026-04-29 21:55 | 23.41564 | -74.93440 | 40010 ft | 421 kts | 296° |
| 2026-04-29 21:55 | 23.44382 | -74.99040 | 40013 ft | 422 kts | 296° |
| 2026-04-29 21:56 | 23.47200 | -75.04649 | 40009 ft | 422 kts | 296° |
| 2026-04-29 21:56 | 23.50020 | -75.10265 | 40005 ft | 423 kts | 296° |
| 2026-04-29 21:57 | 23.52845 | -75.15900 | 40007 ft | 423 kts | 296° |
| 2026-04-29 21:57 | 23.55670 | -75.21539 | 40006 ft | 424 kts | 296° |
| 2026-04-29 21:58 | 23.58532 | -75.27171 | 40009 ft | 425 kts | 299° |
| 2026-04-29 21:58 | 23.61917 | -75.32433 | 40010 ft | 428 kts | 304° |
| 2026-04-29 21:59 | 23.65570 | -75.37615 | 40001 ft | 428 kts | 304° |
| 2026-04-29 21:59 | 23.69132 | -75.42767 | 40021 ft | 428 kts | 303° |
| 2026-04-29 22:00 | 23.72669 | -75.47991 | 40013 ft | 428 kts | 303° |
| 2026-04-29 22:00 | 23.76192 | -75.53235 | 40005 ft | 428 kts | 303° |
| 2026-04-29 22:01 | 23.79710 | -75.58478 | 40007 ft | 428 kts | 303° |
| 2026-04-29 22:01 | 23.83212 | -75.63700 | 40006 ft | 428 kts | 303° |
| 2026-04-29 22:02 | 23.86737 | -75.68958 | 40008 ft | 428 kts | 303° |
| 2026-04-29 22:02 | 23.90266 | -75.74230 | 40005 ft | 428 kts | 303° |
| 2026-04-29 22:03 | 23.93766 | -75.79462 | 40003 ft | 429 kts | 303° |
| 2026-04-29 22:03 | 23.97285 | -75.84730 | 40009 ft | 429 kts | 303° |
| 2026-04-29 22:04 | 24.00805 | -75.90004 | 40003 ft | 429 kts | 303° |
| 2026-04-29 22:04 | 24.03730 | -75.94391 | 40008 ft | 429 kts | 303° |
| 2026-04-29 22:05 | 24.07259 | -75.99672 | 40008 ft | 429 kts | 303° |
| 2026-04-29 22:06 | 24.12556 | -76.07585 | 40007 ft | 430 kts | 303° |
| 2026-04-29 22:06 | 24.16087 | -76.12870 | 40004 ft | 430 kts | 303° |
| 2026-04-29 22:07 | 24.19596 | -76.18132 | 40001 ft | 430 kts | 303° |
| 2026-04-29 22:07 | 24.23130 | -76.23435 | 40005 ft | 430 kts | 303° |
| 2026-04-29 22:08 | 24.26655 | -76.28730 | 40013 ft | 430 kts | 303° |
| 2026-04-29 22:08 | 24.30154 | -76.34011 | 40010 ft | 430 kts | 303° |
| 2026-04-29 22:09 | 24.33669 | -76.39329 | 40005 ft | 431 kts | 303° |
| 2026-04-29 22:09 | 24.37184 | -76.44655 | 40006 ft | 431 kts | 303° |
| 2026-04-29 22:10 | 24.40701 | -76.49986 | 40034 ft | 431 kts | 304° |
| 2026-04-29 22:10 | 24.44217 | -76.55325 | 40014 ft | 431 kts | 304° |
| 2026-04-29 22:11 | 24.47706 | -76.60624 | 40012 ft | 431 kts | 304° |
| 2026-04-29 22:11 | 24.51218 | -76.65965 | 40007 ft | 431 kts | 304° |
| 2026-04-29 22:12 | 24.54730 | -76.71312 | 40009 ft | 431 kts | 304° |
| 2026-04-29 22:12 | 24.58237 | -76.76658 | 40008 ft | 431 kts | 304° |
| 2026-04-29 22:13 | 24.61746 | -76.82012 | 40009 ft | 431 kts | 304° |
| 2026-04-29 22:13 | 24.65224 | -76.87328 | 40006 ft | 431 kts | 305° |
| 2026-04-29 22:14 | 24.68713 | -76.92681 | 40008 ft | 430 kts | 305° |
| 2026-04-29 22:14 | 24.72198 | -76.98029 | 40008 ft | 430 kts | 305° |
| 2026-04-29 22:15 | 24.75680 | -77.03369 | 40010 ft | 429 kts | 305° |
| 2026-04-29 22:15 | 24.79171 | -77.08694 | 40016 ft | 428 kts | 306° |
| 2026-04-29 22:16 | 24.82651 | -77.14003 | 40008 ft | 427 kts | 306° |
| 2026-04-29 22:16 | 24.86114 | -77.19297 | 40012 ft | 425 kts | 306° |
| 2026-04-29 22:17 | 24.89541 | -77.24545 | 40011 ft | 424 kts | 306° |
| 2026-04-29 22:17 | 24.92976 | -77.29812 | 40019 ft | 422 kts | 306° |
| 2026-04-29 22:18 | 24.96402 | -77.35070 | 40024 ft | 422 kts | 306° |
| 2026-04-29 22:18 | 24.99820 | -77.40321 | 40028 ft | 421 kts | 306° |
| 2026-04-29 22:19 | 25.03127 | -77.45652 | 40025 ft | 421 kts | 300° |
| 2026-04-29 22:19 | 25.05604 | -77.51445 | 40032 ft | 422 kts | 291° |
| 2026-04-29 22:20 | 25.07559 | -77.57561 | 40027 ft | 423 kts | 291° |
| 2026-04-29 22:20 | 25.09690 | -77.63604 | 40019 ft | 423 kts | 294° |
| 2026-04-29 22:21 | 25.11950 | -77.69613 | 40020 ft | 424 kts | 294° |
| 2026-04-29 22:21 | 25.14204 | -77.75648 | 40021 ft | 426 kts | 293° |
| 2026-04-29 22:22 | 25.16456 | -77.81716 | 40008 ft | 427 kts | 293° |
| 2026-04-29 22:22 | 25.18710 | -77.87794 | 40005 ft | 428 kts | 293° |
| 2026-04-29 22:23 | 25.20956 | -77.93857 | 40006 ft | 428 kts | 293° |
| 2026-04-29 22:23 | 25.23211 | -77.99948 | 40002 ft | 428 kts | 293° |
| 2026-04-29 22:24 | 25.25464 | -78.06035 | 40006 ft | 428 kts | 293° |
| 2026-04-29 22:24 | 25.27720 | -78.12142 | 40004 ft | 428 kts | 293° |
| 2026-04-29 22:25 | 25.29970 | -78.18240 | 40006 ft | 428 kts | 294° |
| 2026-04-29 22:25 | 25.32410 | -78.24238 | 40006 ft | 428 kts | 296° |
| 2026-04-29 22:26 | 25.34993 | -78.30112 | 40006 ft | 427 kts | 297° |
| 2026-04-29 22:26 | 25.37587 | -78.36025 | 40006 ft | 427 kts | 296° |
| 2026-04-29 22:27 | 25.40151 | -78.41954 | 40005 ft | 427 kts | 296° |
| 2026-04-29 22:27 | 25.42697 | -78.47888 | 40006 ft | 426 kts | 296° |
| 2026-04-29 22:28 | 25.45238 | -78.53828 | 40004 ft | 426 kts | 296° |
| 2026-04-29 22:28 | 25.47758 | -78.59723 | 40006 ft | 426 kts | 296° |
| 2026-04-29 22:29 | 25.50287 | -78.65648 | 40007 ft | 426 kts | 296° |
| 2026-04-29 22:29 | 25.52817 | -78.71581 | 40005 ft | 426 kts | 296° |
| 2026-04-29 22:30 | 25.55344 | -78.77515 | 40007 ft | 426 kts | 296° |
| 2026-04-29 22:30 | 25.57865 | -78.83443 | 40009 ft | 425 kts | 296° |
| 2026-04-29 22:31 | 25.60386 | -78.89380 | 40008 ft | 425 kts | 296° |
| 2026-04-29 22:31 | 25.62887 | -78.95277 | 40005 ft | 425 kts | 296° |
| 2026-04-29 22:32 | 25.65398 | -79.01206 | 40002 ft | 425 kts | 296° |
| 2026-04-29 22:32 | 25.67909 | -79.07143 | 40000 ft | 424 kts | 296° |
| 2026-04-29 22:33 | 25.70415 | -79.13081 | 40005 ft | 424 kts | 296° |
| 2026-04-29 22:33 | 25.72917 | -79.19011 | 40006 ft | 425 kts | 296° |
| 2026-04-29 22:34 | 25.75422 | -79.24958 | 40005 ft | 425 kts | 296° |
| 2026-04-29 22:34 | 25.77923 | -79.30905 | 40004 ft | 426 kts | 296° |
| 2026-04-29 22:35 | 25.80425 | -79.36862 | 40006 ft | 426 kts | 296° |
| 2026-04-29 22:35 | 25.82914 | -79.42795 | 39992 ft | 426 kts | 297° |
| 2026-04-29 22:36 | 25.85413 | -79.48767 | 40003 ft | 426 kts | 297° |
| 2026-04-29 22:36 | 25.87911 | -79.54738 | 40003 ft | 426 kts | 297° |
| 2026-04-29 22:37 | 25.90409 | -79.60715 | 39999 ft | 426 kts | 296° |
| 2026-04-29 22:37 | 25.92904 | -79.66698 | 39995 ft | 426 kts | 296° |
| 2026-04-29 22:38 | 25.95396 | -79.72683 | 39994 ft | 426 kts | 296° |
| 2026-04-29 22:38 | 25.96638 | -79.75667 | 39864 ft | 428 kts | 296° |
| 2026-04-29 22:38 | 25.97877 | -79.78647 | 39337 ft | 431 kts | 297° |
| 2026-04-29 22:38 | 25.99133 | -79.81672 | 38780 ft | 429 kts | 297° |
| 2026-04-29 22:39 | 26.00385 | -79.84690 | 38120 ft | 429 kts | 297° |
| 2026-04-29 22:39 | 26.01637 | -79.87706 | 37469 ft | 429 kts | 296° |
| 2026-04-29 22:39 | 26.02888 | -79.90722 | 36828 ft | 429 kts | 296° |
| 2026-04-29 22:39 | 26.04135 | -79.93729 | 36196 ft | 428 kts | 296° |
| 2026-04-29 22:40 | 26.05386 | -79.96750 | 35527 ft | 430 kts | 295° |
| 2026-04-29 22:40 | 26.06638 | -79.99776 | 34828 ft | 432 kts | 295° |
| 2026-04-29 22:40 | 26.07899 | -80.02825 | 34097 ft | 435 kts | 295° |
| 2026-04-29 22:40 | 26.09165 | -80.05893 | 33264 ft | 438 kts | 295° |
| 2026-04-29 22:41 | 26.10422 | -80.08944 | 32481 ft | 439 kts | 295° |
| 2026-04-29 22:41 | 26.11698 | -80.12039 | 31680 ft | 440 kts | 295° |
| 2026-04-29 22:41 | 26.12977 | -80.15145 | 30860 ft | 442 kts | 296° |
| 2026-04-29 22:41 | 26.14365 | -80.18201 | 30131 ft | 439 kts | 305° |
| 2026-04-29 22:42 | 26.16396 | -80.20611 | 29871 ft | 424 kts | 322° |
| 2026-04-29 22:42 | 26.18842 | -80.22363 | 29635 ft | 413 kts | 330° |
| 2026-04-29 22:42 | 26.21474 | -80.23760 | 29391 ft | 426 kts | 334° |
| 2026-04-29 22:42 | 26.24245 | -80.25057 | 29154 ft | 436 kts | 336° |
| 2026-04-29 22:43 | 26.27020 | -80.26337 | 28893 ft | 437 kts | 335° |
| 2026-04-29 22:43 | 26.29790 | -80.27679 | 28627 ft | 432 kts | 334° |
| 2026-04-29 22:43 | 26.32495 | -80.29124 | 28376 ft | 429 kts | 332° |
| 2026-04-29 22:43 | 26.35155 | -80.30605 | 28137 ft | 426 kts | 332° |
| 2026-04-29 22:44 | 26.37809 | -80.32075 | 27889 ft | 424 kts | 332° |
| 2026-04-29 22:44 | 26.40459 | -80.33511 | 27648 ft | 422 kts | 333° |
| 2026-04-29 22:44 | 26.43107 | -80.34920 | 27409 ft | 421 kts | 333° |
| 2026-04-29 22:44 | 26.45755 | -80.36311 | 27169 ft | 420 kts | 333° |
| 2026-04-29 22:45 | 26.48409 | -80.37699 | 26929 ft | 420 kts | 333° |
| 2026-04-29 22:45 | 26.51048 | -80.39079 | 26690 ft | 419 kts | 333° |
| 2026-04-29 22:45 | 26.53687 | -80.40460 | 26450 ft | 419 kts | 333° |
| 2026-04-29 22:45 | 26.56322 | -80.41841 | 26212 ft | 418 kts | 333° |
| 2026-04-29 22:46 | 26.58958 | -80.43225 | 25974 ft | 418 kts | 333° |
| 2026-04-29 22:46 | 26.61557 | -80.44589 | 25738 ft | 417 kts | 333° |
| 2026-04-29 22:46 | 26.64196 | -80.45914 | 25504 ft | 417 kts | 335° |
| 2026-04-29 22:46 | 26.66878 | -80.47139 | 25257 ft | 416 kts | 337° |
| 2026-04-29 22:47 | 26.69600 | -80.48277 | 25029 ft | 415 kts | 339° |
| 2026-04-29 22:47 | 26.72318 | -80.49325 | 24786 ft | 414 kts | 339° |
| 2026-04-29 22:47 | 26.75050 | -80.50358 | 24549 ft | 412 kts | 339° |
| 2026-04-29 22:47 | 26.77762 | -80.51405 | 24310 ft | 411 kts | 339° |
| 2026-04-29 22:48 | 26.80417 | -80.52460 | 24085 ft | 410 kts | 339° |
| 2026-04-29 22:48 | 26.83099 | -80.53549 | 23834 ft | 409 kts | 338° |
| 2026-04-29 22:48 | 26.85762 | -80.54645 | 23614 ft | 407 kts | 338° |
| 2026-04-29 22:48 | 26.88408 | -80.55742 | 23327 ft | 404 kts | 338° |
| 2026-04-29 22:49 | 26.91038 | -80.56836 | 23073 ft | 401 kts | 338° |
| 2026-04-29 22:49 | 26.93647 | -80.57920 | 22829 ft | 398 kts | 339° |
| 2026-04-29 22:49 | 26.96234 | -80.58995 | 22591 ft | 395 kts | 339° |
| 2026-04-29 22:49 | 26.98810 | -80.60066 | 22372 ft | 393 kts | 339° |
| 2026-04-29 22:50 | 27.01373 | -80.61130 | 22144 ft | 392 kts | 339° |
| 2026-04-29 22:50 | 27.03893 | -80.62178 | 21918 ft | 391 kts | 339° |
| 2026-04-29 22:50 | 27.06443 | -80.63238 | 21688 ft | 391 kts | 339° |
| 2026-04-29 22:50 | 27.08992 | -80.64298 | 21459 ft | 391 kts | 339° |
| 2026-04-29 22:51 | 27.11546 | -80.65361 | 21233 ft | 390 kts | 339° |
| 2026-04-29 22:51 | 27.14090 | -80.66425 | 21012 ft | 390 kts | 339° |
| 2026-04-29 22:51 | 27.19162 | -80.68551 | 20545 ft | 385 kts | 338° |
| 2026-04-29 22:52 | 27.21669 | -80.69603 | 20329 ft | 384 kts | 338° |
| 2026-04-29 22:52 | 27.24176 | -80.70656 | 20112 ft | 386 kts | 339° |
| 2026-04-29 22:52 | 27.25840 | -80.71355 | 19964 ft | 385 kts | 339° |
| 2026-04-29 22:52 | 27.28348 | -80.72409 | 19743 ft | 384 kts | 339° |
| 2026-04-29 22:53 | 27.30846 | -80.73458 | 19524 ft | 383 kts | 339° |
| 2026-04-29 22:53 | 27.33321 | -80.74499 | 19299 ft | 375 kts | 339° |
| 2026-04-29 22:53 | 27.36493 | -80.75832 | 19028 ft | 359 kts | 339° |
| 2026-04-29 22:53 | 27.38055 | -80.76492 | 18905 ft | 351 kts | 338° |
| 2026-04-29 22:54 | 27.40322 | -80.77468 | 18640 ft | 346 kts | 338° |
| 2026-04-29 22:54 | 27.42549 | -80.78435 | 18426 ft | 340 kts | 338° |
| 2026-04-29 22:54 | 27.44767 | -80.79399 | 18190 ft | 344 kts | 338° |
| 2026-04-29 22:54 | 27.46989 | -80.80365 | 17929 ft | 348 kts | 338° |
| 2026-04-29 22:55 | 27.49256 | -80.81349 | 17667 ft | 347 kts | 338° |
| 2026-04-29 22:55 | 27.51502 | -80.82322 | 17432 ft | 343 kts | 338° |
| 2026-04-29 22:55 | 27.53716 | -80.83282 | 17132 ft | 339 kts | 338° |
| 2026-04-29 22:55 | 27.55917 | -80.84236 | 16736 ft | 336 kts | 338° |
| 2026-04-29 22:56 | 27.58079 | -80.85215 | 16241 ft | 334 kts | 336° |